sensor_id;sensor_type;location;lat;lon;timestamp;P1;durP1;ratioP1;P2;durP2;ratioP2
5040;SDS011;2539;52.568;13.364;2023-05-10T00:00:46;5.77;;;4.87;;
5040;SDS011;2539;52.568;13.364;2023-05-10T00:03:12;6.20;;;4.67;;
5040;SDS011;2539;52.568;13.364;2023-05-10T00:05:38;6.27;;;4.50;;
5040;SDS011;2539;52.568;13.364;2023-05-10T00:08:04;7.97;;;5.17;;
5040;SDS011;2539;52.568;13.364;2023-05-10T00:10:29;5.53;;;5.03;;
5040;SDS011;2539;52.568;13.364;2023-05-10T00:12:56;5.40;;;4.67;;
5040;SDS011;2539;52.568;13.364;2023-05-10T00:15:22;4.93;;;4.43;;
5040;SDS011;2539;52.568;13.364;2023-05-10T00:17:50;5.57;;;4.90;;
5040;SDS011;2539;52.568;13.364;2023-05-10T00:20:16;5.57;;;4.50;;
5040;SDS011;2539;52.568;13.364;2023-05-10T00:22:48;5.43;;;4.90;;
5040;SDS011;2539;52.568;13.364;2023-05-10T00:25:14;4.87;;;4.37;;
5040;SDS011;2539;52.568;13.364;2023-05-10T00:27:40;4.77;;;4.37;;
5040;SDS011;2539;52.568;13.364;2023-05-10T00:30:07;7.13;;;4.30;;
5040;SDS011;2539;52.568;13.364;2023-05-10T00:32:33;6.37;;;4.77;;
5040;SDS011;2539;52.568;13.364;2023-05-10T00:35:00;7.30;;;4.50;;
5040;SDS011;2539;52.568;13.364;2023-05-10T00:37:26;5.10;;;4.60;;
5040;SDS011;2539;52.568;13.364;2023-05-10T00:39:53;6.03;;;5.30;;
5040;SDS011;2539;52.568;13.364;2023-05-10T00:42:19;8.10;;;5.10;;
5040;SDS011;2539;52.568;13.364;2023-05-10T00:44:45;6.17;;;5.20;;
5040;SDS011;2539;52.568;13.364;2023-05-10T00:47:12;5.47;;;4.80;;
5040;SDS011;2539;52.568;13.364;2023-05-10T00:49:38;7.37;;;4.83;;
5040;SDS011;2539;52.568;13.364;2023-05-10T00:52:06;6.53;;;5.00;;
5040;SDS011;2539;52.568;13.364;2023-05-10T00:54:32;5.57;;;4.90;;
5040;SDS011;2539;52.568;13.364;2023-05-10T00:56:58;5.60;;;4.40;;
5040;SDS011;2539;52.568;13.364;2023-05-10T00:59:25;6.03;;;4.47;;
5040;SDS011;2539;52.568;13.364;2023-05-10T01:01:51;5.50;;;5.00;;
5040;SDS011;2539;52.568;13.364;2023-05-10T01:04:18;5.90;;;4.70;;
5040;SDS011;2539;52.568;13.364;2023-05-10T01:06:47;6.40;;;5.13;;
5040;SDS011;2539;52.568;13.364;2023-05-10T01:09:13;5.57;;;5.03;;
5040;SDS011;2539;52.568;13.364;2023-05-10T01:11:40;7.97;;;5.10;;
5040;SDS011;2539;52.568;13.364;2023-05-10T01:14:06;5.80;;;4.90;;
5040;SDS011;2539;52.568;13.364;2023-05-10T01:16:34;6.33;;;5.50;;
5040;SDS011;2539;52.568;13.364;2023-05-10T01:19:04;4.70;;;4.20;;
5040;SDS011;2539;52.568;13.364;2023-05-10T01:21:41;7.07;;;5.00;;
5040;SDS011;2539;52.568;13.364;2023-05-10T01:24:32;5.40;;;4.80;;
5040;SDS011;2539;52.568;13.364;2023-05-10T01:27:32;5.53;;;4.93;;
5040;SDS011;2539;52.568;13.364;2023-05-10T01:33:01;5.10;;;4.43;;
5040;SDS011;2539;52.568;13.364;2023-05-10T01:35:49;7.80;;;5.00;;
5040;SDS011;2539;52.568;13.364;2023-05-10T01:38:38;6.27;;;5.00;;
5040;SDS011;2539;52.568;13.364;2023-05-10T01:41:14;5.50;;;4.90;;
5040;SDS011;2539;52.568;13.364;2023-05-10T01:43:54;5.43;;;4.90;;
5040;SDS011;2539;52.568;13.364;2023-05-10T01:46:44;5.47;;;4.97;;
5040;SDS011;2539;52.568;13.364;2023-05-10T01:49:23;5.50;;;5.00;;
5040;SDS011;2539;52.568;13.364;2023-05-10T01:51:53;6.47;;;5.10;;
5040;SDS011;2539;52.568;13.364;2023-05-10T01:54:22;5.43;;;4.93;;
5040;SDS011;2539;52.568;13.364;2023-05-10T01:57:02;6.63;;;4.80;;
5040;SDS011;2539;52.568;13.364;2023-05-10T01:59:33;7.50;;;5.30;;
5040;SDS011;2539;52.568;13.364;2023-05-10T02:02:07;5.97;;;5.37;;
5040;SDS011;2539;52.568;13.364;2023-05-10T02:04:38;5.17;;;4.67;;
5040;SDS011;2539;52.568;13.364;2023-05-10T02:07:06;6.50;;;4.50;;
5040;SDS011;2539;52.568;13.364;2023-05-10T02:09:33;5.00;;;4.50;;
5040;SDS011;2539;52.568;13.364;2023-05-10T02:12:01;6.10;;;5.27;;
5040;SDS011;2539;52.568;13.364;2023-05-10T02:14:30;6.53;;;4.93;;
5040;SDS011;2539;52.568;13.364;2023-05-10T02:16:59;6.63;;;4.70;;
5040;SDS011;2539;52.568;13.364;2023-05-10T02:19:26;6.13;;;5.20;;
5040;SDS011;2539;52.568;13.364;2023-05-10T02:21:55;4.97;;;4.50;;
5040;SDS011;2539;52.568;13.364;2023-05-10T02:24:22;5.53;;;5.00;;
5040;SDS011;2539;52.568;13.364;2023-05-10T02:26:51;7.97;;;4.97;;
5040;SDS011;2539;52.568;13.364;2023-05-10T02:29:19;5.70;;;5.10;;
5040;SDS011;2539;52.568;13.364;2023-05-10T02:31:46;5.20;;;4.70;;
5040;SDS011;2539;52.568;13.364;2023-05-10T02:34:13;6.50;;;4.80;;
5040;SDS011;2539;52.568;13.364;2023-05-10T02:36:40;11.83;;;5.27;;
5040;SDS011;2539;52.568;13.364;2023-05-10T02:39:08;4.93;;;4.43;;
5040;SDS011;2539;52.568;13.364;2023-05-10T02:41:38;6.30;;;5.40;;
5040;SDS011;2539;52.568;13.364;2023-05-10T02:44:06;5.20;;;4.70;;
5040;SDS011;2539;52.568;13.364;2023-05-10T02:46:35;5.93;;;5.17;;
5040;SDS011;2539;52.568;13.364;2023-05-10T02:49:02;6.83;;;4.57;;
5040;SDS011;2539;52.568;13.364;2023-05-10T02:51:30;5.43;;;4.70;;
5040;SDS011;2539;52.568;13.364;2023-05-10T02:54:01;5.93;;;5.33;;
5040;SDS011;2539;52.568;13.364;2023-05-10T02:56:35;8.83;;;5.13;;
5040;SDS011;2539;52.568;13.364;2023-05-10T02:59:06;5.13;;;4.63;;
5040;SDS011;2539;52.568;13.364;2023-05-10T03:01:32;7.37;;;4.90;;
5040;SDS011;2539;52.568;13.364;2023-05-10T03:03:59;5.37;;;4.87;;
5040;SDS011;2539;52.568;13.364;2023-05-10T03:06:26;7.97;;;4.90;;
5040;SDS011;2539;52.568;13.364;2023-05-10T03:08:52;7.23;;;4.90;;
5040;SDS011;2539;52.568;13.364;2023-05-10T03:11:37;4.37;;;3.97;;
5040;SDS011;2539;52.568;13.364;2023-05-10T03:14:24;6.03;;;5.00;;
5040;SDS011;2539;52.568;13.364;2023-05-10T03:17:09;7.27;;;4.70;;
5040;SDS011;2539;52.568;13.364;2023-05-10T03:19:47;6.93;;;4.70;;
5040;SDS011;2539;52.568;13.364;2023-05-10T03:22:21;5.10;;;4.60;;
5040;SDS011;2539;52.568;13.364;2023-05-10T03:25:05;6.57;;;4.27;;
5040;SDS011;2539;52.568;13.364;2023-05-10T03:27:37;6.33;;;4.90;;
5040;SDS011;2539;52.568;13.364;2023-05-10T03:30:10;7.03;;;4.90;;
5040;SDS011;2539;52.568;13.364;2023-05-10T03:32:38;5.00;;;4.37;;
5040;SDS011;2539;52.568;13.364;2023-05-10T03:35:08;6.00;;;4.10;;
5040;SDS011;2539;52.568;13.364;2023-05-10T03:37:35;7.30;;;4.70;;
5040;SDS011;2539;52.568;13.364;2023-05-10T03:40:02;6.17;;;4.13;;
5040;SDS011;2539;52.568;13.364;2023-05-10T03:42:29;5.00;;;4.50;;
5040;SDS011;2539;52.568;13.364;2023-05-10T03:44:55;4.60;;;3.90;;
5040;SDS011;2539;52.568;13.364;2023-05-10T03:47:21;5.60;;;4.50;;
5040;SDS011;2539;52.568;13.364;2023-05-10T03:49:48;5.40;;;4.43;;
5040;SDS011;2539;52.568;13.364;2023-05-10T03:52:14;6.10;;;4.77;;
5040;SDS011;2539;52.568;13.364;2023-05-10T03:54:40;5.67;;;4.37;;
5040;SDS011;2539;52.568;13.364;2023-05-10T03:57:05;5.33;;;4.40;;
5040;SDS011;2539;52.568;13.364;2023-05-10T03:59:32;5.27;;;3.73;;
5040;SDS011;2539;52.568;13.364;2023-05-10T04:01:58;5.97;;;4.47;;
5040;SDS011;2539;52.568;13.364;2023-05-10T04:04:24;7.40;;;4.67;;
5040;SDS011;2539;52.568;13.364;2023-05-10T04:06:51;6.07;;;3.97;;
5040;SDS011;2539;52.568;13.364;2023-05-10T04:09:17;7.00;;;4.37;;
5040;SDS011;2539;52.568;13.364;2023-05-10T04:11:44;4.60;;;4.00;;
5040;SDS011;2539;52.568;13.364;2023-05-10T04:14:11;6.47;;;4.30;;
5040;SDS011;2539;52.568;13.364;2023-05-10T04:16:37;4.70;;;4.20;;
5040;SDS011;2539;52.568;13.364;2023-05-10T04:19:03;4.50;;;4.07;;
5040;SDS011;2539;52.568;13.364;2023-05-10T04:21:30;5.23;;;4.60;;
5040;SDS011;2539;52.568;13.364;2023-05-10T04:23:59;7.40;;;4.00;;
5040;SDS011;2539;52.568;13.364;2023-05-10T04:26:26;10.80;;;4.67;;
5040;SDS011;2539;52.568;13.364;2023-05-10T04:28:53;8.00;;;4.53;;
5040;SDS011;2539;52.568;13.364;2023-05-10T04:31:19;7.50;;;3.57;;
5040;SDS011;2539;52.568;13.364;2023-05-10T04:33:45;5.67;;;4.90;;
5040;SDS011;2539;52.568;13.364;2023-05-10T04:36:12;5.70;;;3.87;;
5040;SDS011;2539;52.568;13.364;2023-05-10T04:38:38;4.57;;;3.97;;
5040;SDS011;2539;52.568;13.364;2023-05-10T04:41:05;5.37;;;4.10;;
5040;SDS011;2539;52.568;13.364;2023-05-10T04:43:36;5.50;;;4.30;;
5040;SDS011;2539;52.568;13.364;2023-05-10T04:46:03;6.13;;;4.50;;
5040;SDS011;2539;52.568;13.364;2023-05-10T04:48:30;8.20;;;4.47;;
5040;SDS011;2539;52.568;13.364;2023-05-10T04:50:56;5.17;;;4.20;;
5040;SDS011;2539;52.568;13.364;2023-05-10T04:53:23;9.10;;;4.20;;
5040;SDS011;2539;52.568;13.364;2023-05-10T04:55:49;5.47;;;4.57;;
5040;SDS011;2539;52.568;13.364;2023-05-10T04:58:16;5.33;;;4.30;;
5040;SDS011;2539;52.568;13.364;2023-05-10T05:00:42;5.80;;;4.57;;
5040;SDS011;2539;52.568;13.364;2023-05-10T05:03:09;6.77;;;5.00;;
5040;SDS011;2539;52.568;13.364;2023-05-10T05:05:36;8.20;;;3.90;;
5040;SDS011;2539;52.568;13.364;2023-05-10T05:08:02;4.00;;;3.60;;
5040;SDS011;2539;52.568;13.364;2023-05-10T05:10:29;4.33;;;3.53;;
5040;SDS011;2539;52.568;13.364;2023-05-10T05:12:55;8.10;;;3.93;;
5040;SDS011;2539;52.568;13.364;2023-05-10T05:15:22;10.53;;;4.23;;
5040;SDS011;2539;52.568;13.364;2023-05-10T05:17:48;5.17;;;3.43;;
5040;SDS011;2539;52.568;13.364;2023-05-10T05:20:14;6.90;;;4.40;;
5040;SDS011;2539;52.568;13.364;2023-05-10T05:22:41;5.30;;;3.97;;
5040;SDS011;2539;52.568;13.364;2023-05-10T05:25:07;6.90;;;3.40;;
5040;SDS011;2539;52.568;13.364;2023-05-10T05:27:34;12.03;;;4.23;;
5040;SDS011;2539;52.568;13.364;2023-05-10T05:30:00;7.73;;;3.43;;
5040;SDS011;2539;52.568;13.364;2023-05-10T05:32:26;5.00;;;3.40;;
5040;SDS011;2539;52.568;13.364;2023-05-10T05:34:53;11.37;;;3.73;;
5040;SDS011;2539;52.568;13.364;2023-05-10T05:37:19;7.93;;;4.07;;
5040;SDS011;2539;52.568;13.364;2023-05-10T05:39:47;5.40;;;3.77;;
5040;SDS011;2539;52.568;13.364;2023-05-10T05:42:13;6.23;;;3.40;;
5040;SDS011;2539;52.568;13.364;2023-05-10T05:44:41;4.17;;;3.27;;
5040;SDS011;2539;52.568;13.364;2023-05-10T05:47:07;4.80;;;3.80;;
5040;SDS011;2539;52.568;13.364;2023-05-10T05:49:34;5.17;;;3.43;;
5040;SDS011;2539;52.568;13.364;2023-05-10T05:52:01;4.63;;;3.07;;
5040;SDS011;2539;52.568;13.364;2023-05-10T05:54:28;4.53;;;3.53;;
5040;SDS011;2539;52.568;13.364;2023-05-10T05:56:56;4.47;;;3.77;;
5040;SDS011;2539;52.568;13.364;2023-05-10T05:59:23;7.10;;;3.40;;
5040;SDS011;2539;52.568;13.364;2023-05-10T06:01:50;4.97;;;3.97;;
5040;SDS011;2539;52.568;13.364;2023-05-10T06:04:16;4.73;;;3.77;;
5040;SDS011;2539;52.568;13.364;2023-05-10T06:06:43;8.23;;;4.00;;
5040;SDS011;2539;52.568;13.364;2023-05-10T06:09:09;4.67;;;3.43;;
5040;SDS011;2539;52.568;13.364;2023-05-10T06:11:36;3.97;;;3.57;;
5040;SDS011;2539;52.568;13.364;2023-05-10T06:14:03;6.80;;;3.33;;
5040;SDS011;2539;52.568;13.364;2023-05-10T06:16:30;4.60;;;3.03;;
5040;SDS011;2539;52.568;13.364;2023-05-10T06:18:56;4.83;;;3.23;;
5040;SDS011;2539;52.568;13.364;2023-05-10T06:21:23;4.00;;;3.10;;
5040;SDS011;2539;52.568;13.364;2023-05-10T06:23:49;4.00;;;2.93;;
5040;SDS011;2539;52.568;13.364;2023-05-10T06:26:15;5.63;;;3.80;;
5040;SDS011;2539;52.568;13.364;2023-05-10T06:28:41;4.97;;;2.83;;
5040;SDS011;2539;52.568;13.364;2023-05-10T06:31:08;4.27;;;2.90;;
5040;SDS011;2539;52.568;13.364;2023-05-10T06:33:34;4.93;;;3.30;;
5040;SDS011;2539;52.568;13.364;2023-05-10T06:36:01;5.70;;;3.13;;
5040;SDS011;2539;52.568;13.364;2023-05-10T06:38:26;4.37;;;2.80;;
5040;SDS011;2539;52.568;13.364;2023-05-10T06:40:52;5.23;;;3.00;;
5040;SDS011;2539;52.568;13.364;2023-05-10T06:43:18;3.63;;;2.87;;
5040;SDS011;2539;52.568;13.364;2023-05-10T06:45:44;3.17;;;2.57;;
5040;SDS011;2539;52.568;13.364;2023-05-10T06:48:10;3.50;;;3.00;;
5040;SDS011;2539;52.568;13.364;2023-05-10T06:50:36;8.20;;;2.77;;
5040;SDS011;2539;52.568;13.364;2023-05-10T06:53:03;4.13;;;2.53;;
5040;SDS011;2539;52.568;13.364;2023-05-10T06:55:29;6.00;;;2.70;;
5040;SDS011;2539;52.568;13.364;2023-05-10T06:57:55;2.70;;;2.30;;
5040;SDS011;2539;52.568;13.364;2023-05-10T07:00:22;6.90;;;2.67;;
5040;SDS011;2539;52.568;13.364;2023-05-10T07:02:48;3.00;;;2.40;;
5040;SDS011;2539;52.568;13.364;2023-05-10T07:05:14;3.00;;;2.70;;
5040;SDS011;2539;52.568;13.364;2023-05-10T07:07:41;4.83;;;2.67;;
5040;SDS011;2539;52.568;13.364;2023-05-10T07:10:08;4.13;;;2.77;;
5040;SDS011;2539;52.568;13.364;2023-05-10T07:12:34;7.33;;;2.33;;
5040;SDS011;2539;52.568;13.364;2023-05-10T07:15:01;4.33;;;2.80;;
5040;SDS011;2539;52.568;13.364;2023-05-10T07:17:28;3.13;;;2.73;;
5040;SDS011;2539;52.568;13.364;2023-05-10T07:19:55;7.10;;;2.77;;
5040;SDS011;2539;52.568;13.364;2023-05-10T07:22:21;3.23;;;2.63;;
5040;SDS011;2539;52.568;13.364;2023-05-10T07:24:47;3.50;;;2.90;;
5040;SDS011;2539;52.568;13.364;2023-05-10T07:27:14;3.23;;;2.63;;
5040;SDS011;2539;52.568;13.364;2023-05-10T07:29:40;6.33;;;3.77;;
5040;SDS011;2539;52.568;13.364;2023-05-10T07:32:06;3.40;;;2.43;;
5040;SDS011;2539;52.568;13.364;2023-05-10T07:34:33;3.30;;;2.73;;
5040;SDS011;2539;52.568;13.364;2023-05-10T07:36:59;5.57;;;2.70;;
5040;SDS011;2539;52.568;13.364;2023-05-10T07:39:25;7.00;;;3.10;;
5040;SDS011;2539;52.568;13.364;2023-05-10T07:41:52;6.13;;;3.10;;
5040;SDS011;2539;52.568;13.364;2023-05-10T07:44:19;5.10;;;2.80;;
5040;SDS011;2539;52.568;13.364;2023-05-10T07:46:46;3.03;;;2.60;;
5040;SDS011;2539;52.568;13.364;2023-05-10T07:49:13;4.13;;;2.83;;
5040;SDS011;2539;52.568;13.364;2023-05-10T07:51:39;3.53;;;2.57;;
5040;SDS011;2539;52.568;13.364;2023-05-10T07:54:06;5.00;;;2.70;;
5040;SDS011;2539;52.568;13.364;2023-05-10T07:56:33;4.10;;;2.80;;
5040;SDS011;2539;52.568;13.364;2023-05-10T07:59:00;4.73;;;2.80;;
5040;SDS011;2539;52.568;13.364;2023-05-10T08:01:30;3.47;;;2.80;;
5040;SDS011;2539;52.568;13.364;2023-05-10T08:03:58;4.20;;;2.60;;
5040;SDS011;2539;52.568;13.364;2023-05-10T08:06:24;10.10;;;3.13;;
5040;SDS011;2539;52.568;13.364;2023-05-10T08:08:52;3.97;;;2.90;;
5040;SDS011;2539;52.568;13.364;2023-05-10T08:11:20;7.93;;;3.47;;
5040;SDS011;2539;52.568;13.364;2023-05-10T08:13:47;5.30;;;3.10;;
5040;SDS011;2539;52.568;13.364;2023-05-10T08:16:14;3.63;;;3.17;;
5040;SDS011;2539;52.568;13.364;2023-05-10T08:18:42;3.10;;;2.80;;
5040;SDS011;2539;52.568;13.364;2023-05-10T08:21:09;4.00;;;2.70;;
5040;SDS011;2539;52.568;13.364;2023-05-10T08:23:37;4.13;;;2.73;;
5040;SDS011;2539;52.568;13.364;2023-05-10T08:26:02;3.53;;;3.07;;
5040;SDS011;2539;52.568;13.364;2023-05-10T08:28:28;3.17;;;2.63;;
5040;SDS011;2539;52.568;13.364;2023-05-10T08:30:54;8.40;;;3.30;;
5040;SDS011;2539;52.568;13.364;2023-05-10T08:33:19;3.73;;;3.30;;
5040;SDS011;2539;52.568;13.364;2023-05-10T08:35:46;4.80;;;2.37;;
5040;SDS011;2539;52.568;13.364;2023-05-10T08:38:12;3.17;;;2.63;;
5040;SDS011;2539;52.568;13.364;2023-05-10T08:40:40;6.37;;;2.60;;
5040;SDS011;2539;52.568;13.364;2023-05-10T08:43:09;3.97;;;2.30;;
5040;SDS011;2539;52.568;13.364;2023-05-10T08:45:38;4.03;;;3.03;;
5040;SDS011;2539;52.568;13.364;2023-05-10T08:48:05;5.43;;;3.00;;
5040;SDS011;2539;52.568;13.364;2023-05-10T08:50:35;5.60;;;2.50;;
5040;SDS011;2539;52.568;13.364;2023-05-10T08:53:02;5.40;;;2.73;;
5040;SDS011;2539;52.568;13.364;2023-05-10T08:55:30;3.17;;;2.60;;
5040;SDS011;2539;52.568;13.364;2023-05-10T08:57:59;5.37;;;2.40;;
5040;SDS011;2539;52.568;13.364;2023-05-10T09:00:26;4.63;;;3.40;;
5040;SDS011;2539;52.568;13.364;2023-05-10T09:02:53;8.27;;;2.83;;
5040;SDS011;2539;52.568;13.364;2023-05-10T09:05:20;5.57;;;2.80;;
5040;SDS011;2539;52.568;13.364;2023-05-10T09:07:46;4.03;;;2.70;;
5040;SDS011;2539;52.568;13.364;2023-05-10T09:10:12;3.83;;;2.40;;
5040;SDS011;2539;52.568;13.364;2023-05-10T09:12:40;3.73;;;2.50;;
5040;SDS011;2539;52.568;13.364;2023-05-10T09:15:07;3.67;;;2.60;;
5040;SDS011;2539;52.568;13.364;2023-05-10T09:17:35;3.30;;;2.90;;
5040;SDS011;2539;52.568;13.364;2023-05-10T09:20:03;4.63;;;2.60;;
5040;SDS011;2539;52.568;13.364;2023-05-10T09:22:30;3.70;;;2.73;;
5040;SDS011;2539;52.568;13.364;2023-05-10T09:25:07;5.20;;;2.60;;
5040;SDS011;2539;52.568;13.364;2023-05-10T09:27:34;6.83;;;2.87;;
5040;SDS011;2539;52.568;13.364;2023-05-10T09:30:05;2.90;;;2.53;;
5040;SDS011;2539;52.568;13.364;2023-05-10T09:35:06;3.10;;;2.43;;
5040;SDS011;2539;52.568;13.364;2023-05-10T09:37:38;5.93;;;2.83;;
5040;SDS011;2539;52.568;13.364;2023-05-10T09:40:13;3.50;;;2.87;;
5040;SDS011;2539;52.568;13.364;2023-05-10T09:42:42;6.73;;;3.10;;
5040;SDS011;2539;52.568;13.364;2023-05-10T09:45:16;6.90;;;2.73;;
5040;SDS011;2539;52.568;13.364;2023-05-10T09:47:43;4.47;;;2.90;;
5040;SDS011;2539;52.568;13.364;2023-05-10T09:50:10;2.87;;;2.57;;
5040;SDS011;2539;52.568;13.364;2023-05-10T09:52:46;3.23;;;2.63;;
5040;SDS011;2539;52.568;13.364;2023-05-10T09:55:13;3.63;;;2.80;;
5040;SDS011;2539;52.568;13.364;2023-05-10T09:57:40;5.97;;;2.80;;
5040;SDS011;2539;52.568;13.364;2023-05-10T10:00:06;3.03;;;2.63;;
5040;SDS011;2539;52.568;13.364;2023-05-10T10:02:34;4.97;;;3.03;;
5040;SDS011;2539;52.568;13.364;2023-05-10T10:05:01;3.10;;;2.80;;
5040;SDS011;2539;52.568;13.364;2023-05-10T10:07:28;4.30;;;2.40;;
5040;SDS011;2539;52.568;13.364;2023-05-10T10:09:55;5.10;;;2.60;;
5040;SDS011;2539;52.568;13.364;2023-05-10T10:12:21;4.30;;;2.50;;
5040;SDS011;2539;52.568;13.364;2023-05-10T10:14:48;5.20;;;2.67;;
5040;SDS011;2539;52.568;13.364;2023-05-10T10:17:16;4.23;;;2.97;;
5040;SDS011;2539;52.568;13.364;2023-05-10T10:19:43;5.60;;;3.23;;
5040;SDS011;2539;52.568;13.364;2023-05-10T10:22:10;3.10;;;2.63;;
5040;SDS011;2539;52.568;13.364;2023-05-10T10:24:38;6.80;;;2.60;;
5040;SDS011;2539;52.568;13.364;2023-05-10T10:27:24;3.03;;;2.70;;
5040;SDS011;2539;52.568;13.364;2023-05-10T10:35:28;3.13;;;2.40;;
5040;SDS011;2539;52.568;13.364;2023-05-10T10:37:56;6.93;;;2.87;;
5040;SDS011;2539;52.568;13.364;2023-05-10T10:40:29;6.97;;;2.73;;
5040;SDS011;2539;52.568;13.364;2023-05-10T10:42:56;5.00;;;3.40;;
5040;SDS011;2539;52.568;13.364;2023-05-10T10:45:23;2.90;;;2.60;;
5040;SDS011;2539;52.568;13.364;2023-05-10T10:48:19;4.33;;;2.97;;
5040;SDS011;2539;52.568;13.364;2023-05-10T10:50:47;4.00;;;2.30;;
5040;SDS011;2539;52.568;13.364;2023-05-10T10:53:21;4.00;;;2.47;;
5040;SDS011;2539;52.568;13.364;2023-05-10T10:55:47;5.30;;;2.30;;
5040;SDS011;2539;52.568;13.364;2023-05-10T10:58:28;3.03;;;2.50;;
5040;SDS011;2539;52.568;13.364;2023-05-10T11:01:15;8.70;;;3.03;;
5040;SDS011;2539;52.568;13.364;2023-05-10T11:06:28;3.03;;;2.73;;
5040;SDS011;2539;52.568;13.364;2023-05-10T11:08:57;3.10;;;2.60;;
5040;SDS011;2539;52.568;13.364;2023-05-10T11:11:24;3.50;;;2.50;;
5040;SDS011;2539;52.568;13.364;2023-05-10T11:13:50;5.53;;;3.03;;
5040;SDS011;2539;52.568;13.364;2023-05-10T11:18:52;11.93;;;2.70;;
5040;SDS011;2539;52.568;13.364;2023-05-10T11:21:28;3.27;;;2.67;;
5040;SDS011;2539;52.568;13.364;2023-05-10T11:23:56;3.47;;;2.90;;
5040;SDS011;2539;52.568;13.364;2023-05-10T11:26:24;3.30;;;2.80;;
5040;SDS011;2539;52.568;13.364;2023-05-10T11:28:55;3.00;;;2.50;;
5040;SDS011;2539;52.568;13.364;2023-05-10T11:31:22;4.00;;;2.90;;
5040;SDS011;2539;52.568;13.364;2023-05-10T11:33:50;4.50;;;2.60;;
5040;SDS011;2539;52.568;13.364;2023-05-10T11:36:18;4.50;;;3.67;;
5040;SDS011;2539;52.568;13.364;2023-05-10T11:38:51;8.10;;;3.00;;
5040;SDS011;2539;52.568;13.364;2023-05-10T11:41:18;5.80;;;2.87;;
5040;SDS011;2539;52.568;13.364;2023-05-10T11:43:52;3.17;;;2.43;;
5040;SDS011;2539;52.568;13.364;2023-05-10T11:46:21;2.77;;;2.40;;
5040;SDS011;2539;52.568;13.364;2023-05-10T11:48:53;4.37;;;3.40;;
5040;SDS011;2539;52.568;13.364;2023-05-10T11:51:26;3.30;;;2.40;;
5040;SDS011;2539;52.568;13.364;2023-05-10T11:53:53;4.63;;;2.73;;
5040;SDS011;2539;52.568;13.364;2023-05-10T11:56:21;4.03;;;2.50;;
5040;SDS011;2539;52.568;13.364;2023-05-10T11:58:55;4.57;;;2.57;;
5040;SDS011;2539;52.568;13.364;2023-05-10T12:01:23;5.97;;;2.80;;
5040;SDS011;2539;52.568;13.364;2023-05-10T12:03:51;4.90;;;3.00;;
5040;SDS011;2539;52.568;13.364;2023-05-10T12:06:19;3.03;;;2.30;;
5040;SDS011;2539;52.568;13.364;2023-05-10T12:08:46;5.17;;;2.60;;
5040;SDS011;2539;52.568;13.364;2023-05-10T12:11:18;4.07;;;2.47;;
5040;SDS011;2539;52.568;13.364;2023-05-10T12:13:45;6.53;;;2.20;;
5040;SDS011;2539;52.568;13.364;2023-05-10T12:16:13;3.97;;;2.47;;
5040;SDS011;2539;52.568;13.364;2023-05-10T12:18:40;7.87;;;2.57;;
5040;SDS011;2539;52.568;13.364;2023-05-10T12:21:09;3.07;;;2.30;;
5040;SDS011;2539;52.568;13.364;2023-05-10T12:23:40;4.40;;;2.33;;
5040;SDS011;2539;52.568;13.364;2023-05-10T12:26:10;4.10;;;2.50;;
5040;SDS011;2539;52.568;13.364;2023-05-10T12:28:37;3.90;;;2.30;;
5040;SDS011;2539;52.568;13.364;2023-05-10T12:31:05;3.57;;;2.20;;
5040;SDS011;2539;52.568;13.364;2023-05-10T12:33:42;4.93;;;2.43;;
5040;SDS011;2539;52.568;13.364;2023-05-10T12:36:10;3.20;;;2.90;;
5040;SDS011;2539;52.568;13.364;2023-05-10T12:38:41;8.47;;;2.47;;
5040;SDS011;2539;52.568;13.364;2023-05-10T12:41:09;4.37;;;2.97;;
5040;SDS011;2539;52.568;13.364;2023-05-10T12:43:37;4.20;;;2.40;;
5040;SDS011;2539;52.568;13.364;2023-05-10T12:46:05;3.10;;;2.43;;
5040;SDS011;2539;52.568;13.364;2023-05-10T12:48:39;5.23;;;2.70;;
5040;SDS011;2539;52.568;13.364;2023-05-10T12:51:07;2.90;;;2.20;;
5040;SDS011;2539;52.568;13.364;2023-05-10T12:53:42;3.40;;;2.43;;
5040;SDS011;2539;52.568;13.364;2023-05-10T12:56:11;3.27;;;2.60;;
5040;SDS011;2539;52.568;13.364;2023-05-10T12:58:38;4.73;;;2.57;;
5040;SDS011;2539;52.568;13.364;2023-05-10T13:01:04;5.80;;;2.00;;
5040;SDS011;2539;52.568;13.364;2023-05-10T13:03:31;4.50;;;2.70;;
5040;SDS011;2539;52.568;13.364;2023-05-10T13:05:57;10.43;;;3.60;;
5040;SDS011;2539;52.568;13.364;2023-05-10T13:08:23;4.83;;;2.87;;
5040;SDS011;2539;52.568;13.364;2023-05-10T13:10:50;2.80;;;2.53;;
5040;SDS011;2539;52.568;13.364;2023-05-10T13:13:16;4.73;;;2.60;;
5040;SDS011;2539;52.568;13.364;2023-05-10T13:15:43;3.30;;;2.30;;
5040;SDS011;2539;52.568;13.364;2023-05-10T13:18:10;7.10;;;2.63;;
5040;SDS011;2539;52.568;13.364;2023-05-10T13:20:36;2.50;;;2.07;;
5040;SDS011;2539;52.568;13.364;2023-05-10T13:23:01;3.00;;;2.50;;
5040;SDS011;2539;52.568;13.364;2023-05-10T13:25:27;5.63;;;2.90;;
5040;SDS011;2539;52.568;13.364;2023-05-10T13:27:53;3.20;;;2.40;;
5040;SDS011;2539;52.568;13.364;2023-05-10T13:30:19;5.33;;;2.50;;
5040;SDS011;2539;52.568;13.364;2023-05-10T13:32:46;7.83;;;3.40;;
5040;SDS011;2539;52.568;13.364;2023-05-10T13:35:12;4.40;;;2.40;;
5040;SDS011;2539;52.568;13.364;2023-05-10T13:37:39;7.27;;;3.10;;
5040;SDS011;2539;52.568;13.364;2023-05-10T13:40:05;4.93;;;2.67;;
5040;SDS011;2539;52.568;13.364;2023-05-10T13:42:32;4.30;;;2.50;;
5040;SDS011;2539;52.568;13.364;2023-05-10T13:44:59;3.03;;;2.63;;
5040;SDS011;2539;52.568;13.364;2023-05-10T13:47:27;6.77;;;2.53;;
5040;SDS011;2539;52.568;13.364;2023-05-10T13:49:53;3.67;;;2.30;;
5040;SDS011;2539;52.568;13.364;2023-05-10T13:52:20;3.33;;;2.27;;
5040;SDS011;2539;52.568;13.364;2023-05-10T13:54:46;4.30;;;2.23;;
5040;SDS011;2539;52.568;13.364;2023-05-10T13:57:12;5.03;;;2.70;;
5040;SDS011;2539;52.568;13.364;2023-05-10T13:59:40;4.60;;;2.80;;
5040;SDS011;2539;52.568;13.364;2023-05-10T14:02:06;6.10;;;2.47;;
5040;SDS011;2539;52.568;13.364;2023-05-10T14:04:33;3.10;;;2.70;;
5040;SDS011;2539;52.568;13.364;2023-05-10T14:07:01;4.93;;;2.37;;
5040;SDS011;2539;52.568;13.364;2023-05-10T14:09:27;6.93;;;2.20;;
5040;SDS011;2539;52.568;13.364;2023-05-10T14:11:53;6.53;;;2.80;;
5040;SDS011;2539;52.568;13.364;2023-05-10T14:14:19;3.27;;;2.40;;
5040;SDS011;2539;52.568;13.364;2023-05-10T14:16:45;3.10;;;2.47;;
5040;SDS011;2539;52.568;13.364;2023-05-10T14:19:11;3.60;;;2.43;;
5040;SDS011;2539;52.568;13.364;2023-05-10T14:21:37;3.00;;;2.40;;
5040;SDS011;2539;52.568;13.364;2023-05-10T14:24:03;4.70;;;3.03;;
5040;SDS011;2539;52.568;13.364;2023-05-10T14:26:30;4.30;;;3.03;;
5040;SDS011;2539;52.568;13.364;2023-05-10T14:28:56;7.80;;;2.50;;
5040;SDS011;2539;52.568;13.364;2023-05-10T14:31:23;6.10;;;3.07;;
5040;SDS011;2539;52.568;13.364;2023-05-10T14:33:51;6.40;;;2.57;;
5040;SDS011;2539;52.568;13.364;2023-05-10T14:36:17;4.80;;;2.77;;
5040;SDS011;2539;52.568;13.364;2023-05-10T14:38:44;2.83;;;2.30;;
5040;SDS011;2539;52.568;13.364;2023-05-10T14:41:10;4.80;;;2.70;;
5040;SDS011;2539;52.568;13.364;2023-05-10T14:43:40;3.50;;;2.80;;
5040;SDS011;2539;52.568;13.364;2023-05-10T14:46:06;6.57;;;2.15;;
5040;SDS011;2539;52.568;13.364;2023-05-10T14:48:33;4.53;;;2.70;;
5040;SDS011;2539;52.568;13.364;2023-05-10T14:50:59;3.83;;;2.70;;
5040;SDS011;2539;52.568;13.364;2023-05-10T14:53:25;3.28;;;2.10;;
5040;SDS011;2539;52.568;13.364;2023-05-10T14:55:52;2.80;;;2.03;;
5040;SDS011;2539;52.568;13.364;2023-05-10T14:58:18;4.35;;;2.30;;
5040;SDS011;2539;52.568;13.364;2023-05-10T15:00:44;5.47;;;3.05;;
5040;SDS011;2539;52.568;13.364;2023-05-10T15:03:11;5.70;;;2.63;;
5040;SDS011;2539;52.568;13.364;2023-05-10T15:05:38;3.58;;;2.25;;
5040;SDS011;2539;52.568;13.364;2023-05-10T15:08:04;5.07;;;2.15;;
5040;SDS011;2539;52.568;13.364;2023-05-10T15:10:31;2.90;;;2.00;;
5040;SDS011;2539;52.568;13.364;2023-05-10T15:13:00;7.65;;;2.60;;
5040;SDS011;2539;52.568;13.364;2023-05-10T15:15:29;3.42;;;2.30;;
5040;SDS011;2539;52.568;13.364;2023-05-10T15:17:55;4.32;;;2.13;;
5040;SDS011;2539;52.568;13.364;2023-05-10T15:20:22;3.60;;;2.55;;
5040;SDS011;2539;52.568;13.364;2023-05-10T15:22:48;4.43;;;2.20;;